sensor_id;sensor_type;location;lat;lon;timestamp;temperature;humidity
39371;DHT22;25099;51.946;4.838;2022-10-16T00:01:39;13.30;99.90
39371;DHT22;25099;51.946;4.838;2022-10-16T00:04:04;13.30;99.90
39371;DHT22;25099;51.946;4.838;2022-10-16T00:06:31;13.30;99.90
39371;DHT22;25099;51.946;4.838;2022-10-16T00:08:56;13.30;99.90
39371;DHT22;25099;51.946;4.838;2022-10-16T00:11:25;13.20;99.90
39371;DHT22;25099;51.946;4.838;2022-10-16T00:13:54;13.20;99.90
39371;DHT22;25099;51.946;4.838;2022-10-16T00:16:20;13.20;99.90
39371;DHT22;25099;51.946;4.838;2022-10-16T00:18:46;13.20;99.90
39371;DHT22;25099;51.946;4.838;2022-10-16T00:21:14;13.30;99.90
39371;DHT22;25099;51.946;4.838;2022-10-16T00:23:40;13.30;99.90
39371;DHT22;25099;51.946;4.838;2022-10-16T00:26:16;13.40;99.90
39371;DHT22;25099;51.946;4.838;2022-10-16T00:28:42;13.40;99.90
39371;DHT22;25099;51.946;4.838;2022-10-16T00:31:10;13.40;99.90
39371;DHT22;25099;51.946;4.838;2022-10-16T00:33:38;13.50;99.90
39371;DHT22;25099;51.946;4.838;2022-10-16T00:36:06;13.50;99.90
39371;DHT22;25099;51.946;4.838;2022-10-16T00:38:32;13.50;99.90
39371;DHT22;25099;51.946;4.838;2022-10-16T00:40:57;13.50;99.90
39371;DHT22;25099;51.946;4.838;2022-10-16T00:43:44;13.50;99.90
39371;DHT22;25099;51.946;4.838;2022-10-16T00:48:36;13.50;99.90
39371;DHT22;25099;51.946;4.838;2022-10-16T00:51:01;13.50;99.90
39371;DHT22;25099;51.946;4.838;2022-10-16T00:53:27;13.50;99.90
39371;DHT22;25099;51.946;4.838;2022-10-16T00:55:53;13.40;99.90
39371;DHT22;25099;51.946;4.838;2022-10-16T00:58:20;13.60;99.90
39371;DHT22;25099;51.946;4.838;2022-10-16T01:00:46;13.60;99.90
39371;DHT22;25099;51.946;4.838;2022-10-16T01:03:29;13.60;99.90
39371;DHT22;25099;51.946;4.838;2022-10-16T01:08:54;13.60;99.90
39371;DHT22;25099;51.946;4.838;2022-10-16T01:11:27;13.60;99.90
39371;DHT22;25099;51.946;4.838;2022-10-16T01:13:59;13.60;99.90
39371;DHT22;25099;51.946;4.838;2022-10-16T01:18:59;13.60;99.90
39371;DHT22;25099;51.946;4.838;2022-10-16T01:21:32;13.50;99.90
39371;DHT22;25099;51.946;4.838;2022-10-16T01:27:14;13.50;99.90
39371;DHT22;25099;51.946;4.838;2022-10-16T01:29:55;13.50;99.90
39371;DHT22;25099;51.946;4.838;2022-10-16T01:32:47;13.40;99.90
39371;DHT22;25099;51.946;4.838;2022-10-16T01:40:36;13.30;99.90
39371;DHT22;25099;51.946;4.838;2022-10-16T01:43:08;13.40;99.90
39371;DHT22;25099;51.946;4.838;2022-10-16T01:45:36;13.30;99.90
39371;DHT22;25099;51.946;4.838;2022-10-16T01:48:03;13.30;99.90
39371;DHT22;25099;51.946;4.838;2022-10-16T01:50:33;13.30;99.90
39371;DHT22;25099;51.946;4.838;2022-10-16T01:53:02;13.20;99.90
39371;DHT22;25099;51.946;4.838;2022-10-16T01:55:32;13.10;99.90
39371;DHT22;25099;51.946;4.838;2022-10-16T01:58:01;13.10;99.90
39371;DHT22;25099;51.946;4.838;2022-10-16T02:00:29;13.00;99.90
39371;DHT22;25099;51.946;4.838;2022-10-16T02:02:55;12.90;99.90
39371;DHT22;25099;51.946;4.838;2022-10-16T02:05:54;13.50;99.90
39371;DHT22;25099;51.946;4.838;2022-10-16T02:08:18;12.90;99.90
39371;DHT22;25099;51.946;4.838;2022-10-16T02:10:44;12.80;99.90
39371;DHT22;25099;51.946;4.838;2022-10-16T02:13:15;12.80;99.90
39371;DHT22;25099;51.946;4.838;2022-10-16T02:15:42;12.80;99.90
39371;DHT22;25099;51.946;4.838;2022-10-16T02:18:08;12.80;99.90
39371;DHT22;25099;51.946;4.838;2022-10-16T02:20:45;12.80;99.90
39371;DHT22;25099;51.946;4.838;2022-10-16T02:23:20;12.80;99.90
39371;DHT22;25099;51.946;4.838;2022-10-16T02:25:50;12.80;99.90
39371;DHT22;25099;51.946;4.838;2022-10-16T02:28:20;12.90;99.90
39371;DHT22;25099;51.946;4.838;2022-10-16T02:30:55;12.90;99.90
39371;DHT22;25099;51.946;4.838;2022-10-16T02:33:23;12.90;99.90
39371;DHT22;25099;51.946;4.838;2022-10-16T02:35:51;13.00;99.90
39371;DHT22;25099;51.946;4.838;2022-10-16T02:38:18;13.00;99.90
39371;DHT22;25099;51.946;4.838;2022-10-16T02:40:44;12.90;99.90
39371;DHT22;25099;51.946;4.838;2022-10-16T02:43:10;13.00;99.90
39371;DHT22;25099;51.946;4.838;2022-10-16T02:45:36;13.00;99.90
39371;DHT22;25099;51.946;4.838;2022-10-16T02:48:01;13.00;99.90
39371;DHT22;25099;51.946;4.838;2022-10-16T02:50:27;13.00;99.90
39371;DHT22;25099;51.946;4.838;2022-10-16T02:52:53;13.00;99.90
39371;DHT22;25099;51.946;4.838;2022-10-16T02:55:18;13.00;99.90
39371;DHT22;25099;51.946;4.838;2022-10-16T02:57:44;13.00;99.90
39371;DHT22;25099;51.946;4.838;2022-10-16T03:00:13;13.10;99.90
39371;DHT22;25099;51.946;4.838;2022-10-16T03:02:39;13.00;99.90
39371;DHT22;25099;51.946;4.838;2022-10-16T03:05:05;13.00;99.90
39371;DHT22;25099;51.946;4.838;2022-10-16T03:07:31;13.00;99.90
39371;DHT22;25099;51.946;4.838;2022-10-16T03:09:56;13.00;99.90
39371;DHT22;25099;51.946;4.838;2022-10-16T03:12:28;12.90;99.90
39371;DHT22;25099;51.946;4.838;2022-10-16T03:14:55;12.90;99.90
39371;DHT22;25099;51.946;4.838;2022-10-16T03:17:22;12.80;99.90
39371;DHT22;25099;51.946;4.838;2022-10-16T03:19:47;12.80;99.90
39371;DHT22;25099;51.946;4.838;2022-10-16T03:22:13;12.70;99.90
39371;DHT22;25099;51.946;4.838;2022-10-16T03:24:38;12.60;99.90
39371;DHT22;25099;51.946;4.838;2022-10-16T03:27:04;12.70;99.90
39371;DHT22;25099;51.946;4.838;2022-10-16T03:29:29;12.70;99.90
39371;DHT22;25099;51.946;4.838;2022-10-16T03:31:56;12.70;99.90
39371;DHT22;25099;51.946;4.838;2022-10-16T03:34:22;12.70;99.90
39371;DHT22;25099;51.946;4.838;2022-10-16T03:36:47;12.70;99.90
39371;DHT22;25099;51.946;4.838;2022-10-16T03:39:13;12.70;99.90
39371;DHT22;25099;51.946;4.838;2022-10-16T03:41:39;12.60;99.90
39371;DHT22;25099;51.946;4.838;2022-10-16T03:44:04;12.70;99.90
39371;DHT22;25099;51.946;4.838;2022-10-16T03:46:30;12.70;99.90
39371;DHT22;25099;51.946;4.838;2022-10-16T03:48:55;12.60;99.90
39371;DHT22;25099;51.946;4.838;2022-10-16T03:51:21;12.60;99.90
39371;DHT22;25099;51.946;4.838;2022-10-16T03:53:47;12.60;99.90
39371;DHT22;25099;51.946;4.838;2022-10-16T03:56:12;12.70;99.90
39371;DHT22;25099;51.946;4.838;2022-10-16T03:58:38;12.80;99.90
39371;DHT22;25099;51.946;4.838;2022-10-16T04:01:03;12.70;99.90
39371;DHT22;25099;51.946;4.838;2022-10-16T04:03:29;12.60;99.90
39371;DHT22;25099;51.946;4.838;2022-10-16T04:05:54;12.70;99.90
39371;DHT22;25099;51.946;4.838;2022-10-16T04:08:20;12.70;99.90
39371;DHT22;25099;51.946;4.838;2022-10-16T04:10:46;12.70;99.90
39371;DHT22;25099;51.946;4.838;2022-10-16T04:13:12;12.70;99.90
39371;DHT22;25099;51.946;4.838;2022-10-16T04:15:38;12.70;99.90
39371;DHT22;25099;51.946;4.838;2022-10-16T04:18:04;12.70;99.90
39371;DHT22;25099;51.946;4.838;2022-10-16T04:20:30;12.70;99.90
39371;DHT22;25099;51.946;4.838;2022-10-16T04:22:56;12.60;99.90
39371;DHT22;25099;51.946;4.838;2022-10-16T04:25:21;12.60;99.90
39371;DHT22;25099;51.946;4.838;2022-10-16T04:27:47;12.50;99.90
39371;DHT22;25099;51.946;4.838;2022-10-16T04:30:13;12.50;99.90
39371;DHT22;25099;51.946;4.838;2022-10-16T04:32:40;12.50;99.90
39371;DHT22;25099;51.946;4.838;2022-10-16T04:35:05;12.40;99.90
39371;DHT22;25099;51.946;4.838;2022-10-16T04:37:31;12.30;99.90
39371;DHT22;25099;51.946;4.838;2022-10-16T04:39:57;12.20;99.90
39371;DHT22;25099;51.946;4.838;2022-10-16T04:42:22;12.20;99.90
39371;DHT22;25099;51.946;4.838;2022-10-16T04:44:48;12.20;99.90
39371;DHT22;25099;51.946;4.838;2022-10-16T04:47:13;12.20;99.90
39371;DHT22;25099;51.946;4.838;2022-10-16T04:49:39;12.10;99.90
39371;DHT22;25099;51.946;4.838;2022-10-16T04:52:05;12.10;99.90
39371;DHT22;25099;51.946;4.838;2022-10-16T04:54:31;12.10;99.90
39371;DHT22;25099;51.946;4.838;2022-10-16T04:56:56;12.00;99.90
39371;DHT22;25099;51.946;4.838;2022-10-16T04:59:23;12.00;99.90
39371;DHT22;25099;51.946;4.838;2022-10-16T05:01:49;12.10;99.90
39371;DHT22;25099;51.946;4.838;2022-10-16T05:04:15;12.10;99.90
39371;DHT22;25099;51.946;4.838;2022-10-16T05:06:41;12.10;99.90
39371;DHT22;25099;51.946;4.838;2022-10-16T05:09:06;12.10;99.90
39371;DHT22;25099;51.946;4.838;2022-10-16T05:11:32;12.20;99.90
39371;DHT22;25099;51.946;4.838;2022-10-16T05:13:58;12.30;99.90
39371;DHT22;25099;51.946;4.838;2022-10-16T05:16:24;12.30;99.90
39371;DHT22;25099;51.946;4.838;2022-10-16T05:18:51;12.30;99.90
39371;DHT22;25099;51.946;4.838;2022-10-16T05:21:16;12.30;99.90
39371;DHT22;25099;51.946;4.838;2022-10-16T05:23:42;12.40;99.90
39371;DHT22;25099;51.946;4.838;2022-10-16T05:26:08;12.40;99.90
39371;DHT22;25099;51.946;4.838;2022-10-16T05:28:36;12.40;99.90
39371;DHT22;25099;51.946;4.838;2022-10-16T05:31:09;12.40;99.90
39371;DHT22;25099;51.946;4.838;2022-10-16T05:33:35;12.40;99.90
39371;DHT22;25099;51.946;4.838;2022-10-16T05:36:03;12.40;99.90
39371;DHT22;25099;51.946;4.838;2022-10-16T05:38:29;12.50;99.90
39371;DHT22;25099;51.946;4.838;2022-10-16T05:40:54;12.50;99.90
39371;DHT22;25099;51.946;4.838;2022-10-16T05:43:20;12.50;99.90
39371;DHT22;25099;51.946;4.838;2022-10-16T05:46:05;12.60;99.90
39371;DHT22;25099;51.946;4.838;2022-10-16T05:48:31;12.60;99.90
39371;DHT22;25099;51.946;4.838;2022-10-16T05:51:01;12.60;99.90
39371;DHT22;25099;51.946;4.838;2022-10-16T05:53:28;12.60;99.90
39371;DHT22;25099;51.946;4.838;2022-10-16T05:55:55;12.70;99.90
39371;DHT22;25099;51.946;4.838;2022-10-16T05:58:21;12.80;99.90
39371;DHT22;25099;51.946;4.838;2022-10-16T06:00:58;12.90;99.90
39371;DHT22;25099;51.946;4.838;2022-10-16T06:03:24;12.90;99.90
39371;DHT22;25099;51.946;4.838;2022-10-16T06:05:50;12.90;99.90
39371;DHT22;25099;51.946;4.838;2022-10-16T06:08:16;12.90;99.90
39371;DHT22;25099;51.946;4.838;2022-10-16T06:10:41;13.00;99.90
39371;DHT22;25099;51.946;4.838;2022-10-16T06:13:07;13.00;99.90
39371;DHT22;25099;51.946;4.838;2022-10-16T06:15:33;13.00;99.90
39371;DHT22;25099;51.946;4.838;2022-10-16T06:17:58;13.10;99.90
39371;DHT22;25099;51.946;4.838;2022-10-16T06:20:24;13.10;99.90
39371;DHT22;25099;51.946;4.838;2022-10-16T06:22:49;13.20;99.90
39371;DHT22;25099;51.946;4.838;2022-10-16T06:25:15;13.20;99.90
39371;DHT22;25099;51.946;4.838;2022-10-16T06:27:41;13.20;99.90
39371;DHT22;25099;51.946;4.838;2022-10-16T06:30:07;13.20;99.90
39371;DHT22;25099;51.946;4.838;2022-10-16T06:32:33;13.20;99.90
39371;DHT22;25099;51.946;4.838;2022-10-16T06:34:58;13.20;99.90
39371;DHT22;25099;51.946;4.838;2022-10-16T06:37:24;13.30;99.90
39371;DHT22;25099;51.946;4.838;2022-10-16T06:39:50;13.20;99.90
39371;DHT22;25099;51.946;4.838;2022-10-16T06:42:17;13.30;99.90
39371;DHT22;25099;51.946;4.838;2022-10-16T06:44:43;13.30;99.90
39371;DHT22;25099;51.946;4.838;2022-10-16T06:47:10;13.30;99.90
39371;DHT22;25099;51.946;4.838;2022-10-16T06:49:36;13.30;99.90
39371;DHT22;25099;51.946;4.838;2022-10-16T06:52:02;13.30;99.90
39371;DHT22;25099;51.946;4.838;2022-10-16T06:54:28;13.30;99.90
39371;DHT22;25099;51.946;4.838;2022-10-16T06:56:54;13.30;99.90
39371;DHT22;25099;51.946;4.838;2022-10-16T06:59:30;13.30;99.90
39371;DHT22;25099;51.946;4.838;2022-10-16T07:02:01;13.30;99.90
39371;DHT22;25099;51.946;4.838;2022-10-16T07:04:27;13.30;99.90
39371;DHT22;25099;51.946;4.838;2022-10-16T07:06:52;13.30;99.90
39371;DHT22;25099;51.946;4.838;2022-10-16T07:09:18;13.30;99.90
39371;DHT22;25099;51.946;4.838;2022-10-16T07:11:43;13.30;99.90
39371;DHT22;25099;51.946;4.838;2022-10-16T07:14:17;13.40;99.90
39371;DHT22;25099;51.946;4.838;2022-10-16T07:16:43;13.30;99.90
39371;DHT22;25099;51.946;4.838;2022-10-16T07:19:09;13.30;99.90
39371;DHT22;25099;51.946;4.838;2022-10-16T07:21:39;13.30;99.90
39371;DHT22;25099;51.946;4.838;2022-10-16T07:24:10;13.20;99.90
39371;DHT22;25099;51.946;4.838;2022-10-16T07:26:36;13.20;99.90
39371;DHT22;25099;51.946;4.838;2022-10-16T07:29:05;13.10;99.90
39371;DHT22;25099;51.946;4.838;2022-10-16T07:31:30;13.20;99.90
39371;DHT22;25099;51.946;4.838;2022-10-16T07:33:58;13.10;99.90
39371;DHT22;25099;51.946;4.838;2022-10-16T07:36:24;13.10;99.90
39371;DHT22;25099;51.946;4.838;2022-10-16T07:38:52;13.10;99.90
39371;DHT22;25099;51.946;4.838;2022-10-16T07:41:19;13.30;99.90
39371;DHT22;25099;51.946;4.838;2022-10-16T07:43:52;13.20;99.90
39371;DHT22;25099;51.946;4.838;2022-10-16T07:46:19;13.20;99.90
39371;DHT22;25099;51.946;4.838;2022-10-16T07:48:45;13.20;99.90
39371;DHT22;25099;51.946;4.838;2022-10-16T07:51:17;13.30;99.90
39371;DHT22;25099;51.946;4.838;2022-10-16T07:53:43;13.40;99.90
39371;DHT22;25099;51.946;4.838;2022-10-16T07:56:08;13.40;99.90
39371;DHT22;25099;51.946;4.838;2022-10-16T07:58:35;13.50;99.90
39371;DHT22;25099;51.946;4.838;2022-10-16T08:01:07;13.50;99.90
39371;DHT22;25099;51.946;4.838;2022-10-16T08:03:33;13.50;99.90
39371;DHT22;25099;51.946;4.838;2022-10-16T08:05:59;13.60;99.90
39371;DHT22;25099;51.946;4.838;2022-10-16T08:08:25;13.60;99.90
39371;DHT22;25099;51.946;4.838;2022-10-16T08:10:51;13.60;99.90
39371;DHT22;25099;51.946;4.838;2022-10-16T08:13:17;13.70;99.90
39371;DHT22;25099;51.946;4.838;2022-10-16T08:15:43;13.70;99.90
39371;DHT22;25099;51.946;4.838;2022-10-16T08:18:10;13.70;99.90
39371;DHT22;25099;51.946;4.838;2022-10-16T08:20:36;13.70;99.90
39371;DHT22;25099;51.946;4.838;2022-10-16T08:23:02;13.80;99.90
39371;DHT22;25099;51.946;4.838;2022-10-16T08:25:28;13.80;99.90
39371;DHT22;25099;51.946;4.838;2022-10-16T08:27:54;13.80;99.90
39371;DHT22;25099;51.946;4.838;2022-10-16T08:30:22;13.90;99.90
39371;DHT22;25099;51.946;4.838;2022-10-16T08:32:48;13.90;99.90
39371;DHT22;25099;51.946;4.838;2022-10-16T08:35:14;14.10;99.90
39371;DHT22;25099;51.946;4.838;2022-10-16T08:37:40;14.10;99.90
39371;DHT22;25099;51.946;4.838;2022-10-16T08:40:12;13.50;99.90
39371;DHT22;25099;51.946;4.838;2022-10-16T08:45:34;14.20;99.90
39371;DHT22;25099;51.946;4.838;2022-10-16T08:51:08;14.40;99.90
39371;DHT22;25099;51.946;4.838;2022-10-16T08:53:59;14.50;99.90
39371;DHT22;25099;51.946;4.838;2022-10-16T08:56:27;14.60;99.90
39371;DHT22;25099;51.946;4.838;2022-10-16T08:58:54;14.60;99.90
39371;DHT22;25099;51.946;4.838;2022-10-16T09:01:21;14.70;99.90
39371;DHT22;25099;51.946;4.838;2022-10-16T09:06:47;14.80;99.90
39371;DHT22;25099;51.946;4.838;2022-10-16T09:15:21;15.20;99.90
39371;DHT22;25099;51.946;4.838;2022-10-16T09:20:31;15.30;99.90
39371;DHT22;25099;51.946;4.838;2022-10-16T09:23:19;15.40;99.90
39371;DHT22;25099;51.946;4.838;2022-10-16T09:25:47;15.50;99.90
39371;DHT22;25099;51.946;4.838;2022-10-16T09:28:17;15.60;99.90
39371;DHT22;25099;51.946;4.838;2022-10-16T09:30:43;15.50;99.90
39371;DHT22;25099;51.946;4.838;2022-10-16T09:33:11;15.60;99.90
39371;DHT22;25099;51.946;4.838;2022-10-16T09:35:45;15.60;99.90
39371;DHT22;25099;51.946;4.838;2022-10-16T09:39:02;15.60;99.90
39371;DHT22;25099;51.946;4.838;2022-10-16T09:41:26;15.60;99.90
39371;DHT22;25099;51.946;4.838;2022-10-16T09:43:55;15.60;99.90
39371;DHT22;25099;51.946;4.838;2022-10-16T09:46:35;15.60;99.90
39371;DHT22;25099;51.946;4.838;2022-10-16T09:49:04;15.70;99.90
39371;DHT22;25099;51.946;4.838;2022-10-16T09:51:31;15.70;99.90
39371;DHT22;25099;51.946;4.838;2022-10-16T09:54:02;15.70;99.90
39371;DHT22;25099;51.946;4.838;2022-10-16T09:56:31;15.70;99.90
39371;DHT22;25099;51.946;4.838;2022-10-16T09:59:00;15.80;99.90
39371;DHT22;25099;51.946;4.838;2022-10-16T10:01:39;15.90;99.90
39371;DHT22;25099;51.946;4.838;2022-10-16T10:04:06;16.00;99.90
39371;DHT22;25099;51.946;4.838;2022-10-16T10:06:37;16.00;99.90
39371;DHT22;25099;51.946;4.838;2022-10-16T10:11:51;16.00;99.90
39371;DHT22;25099;51.946;4.838;2022-10-16T10:14:27;16.00;99.90
39371;DHT22;25099;51.946;4.838;2022-10-16T10:17:17;15.90;99.90
39371;DHT22;25099;51.946;4.838;2022-10-16T10:36:34;16.30;99.90
39371;DHT22;25099;51.946;4.838;2022-10-16T10:39:13;16.40;99.90
39371;DHT22;25099;51.946;4.838;2022-10-16T10:47:45;16.60;99.90
39371;DHT22;25099;51.946;4.838;2022-10-16T10:55:33;16.60;99.90
39371;DHT22;25099;51.946;4.838;2022-10-16T11:04:09;16.70;99.90
39371;DHT22;25099;51.946;4.838;2022-10-16T11:06:08;16.70;99.90
39371;DHT22;25099;51.946;4.838;2022-10-16T11:08:47;16.80;99.90
39371;DHT22;25099;51.946;4.838;2022-10-16T11:11:17;16.70;99.90
39371;DHT22;25099;51.946;4.838;2022-10-16T11:27:47;16.70;99.90
39371;DHT22;25099;51.946;4.838;2022-10-16T11:30:24;16.60;99.90
39371;DHT22;25099;51.946;4.838;2022-10-16T11:40:52;17.00;99.90
39371;DHT22;25099;51.946;4.838;2022-10-16T11:46:03;17.20;99.90
39371;DHT22;25099;51.946;4.838;2022-10-16T11:48:54;17.30;99.90
39371;DHT22;25099;51.946;4.838;2022-10-16T11:51:31;17.30;99.90
39371;DHT22;25099;51.946;4.838;2022-10-16T11:54:08;17.40;99.90
39371;DHT22;25099;51.946;4.838;2022-10-16T11:56:38;17.40;99.90
39371;DHT22;25099;51.946;4.838;2022-10-16T11:59:13;17.50;99.90
39371;DHT22;25099;51.946;4.838;2022-10-16T12:01:54;17.70;99.90
39371;DHT22;25099;51.946;4.838;2022-10-16T12:04:36;17.70;99.90
39371;DHT22;25099;51.946;4.838;2022-10-16T12:07:14;17.80;99.90
39371;DHT22;25099;51.946;4.838;2022-10-16T12:09:42;17.90;99.90
39371;DHT22;25099;51.946;4.838;2022-10-16T12:17:44;17.90;99.90
39371;DHT22;25099;51.946;4.838;2022-10-16T12:22:49;17.60;99.90
39371;DHT22;25099;51.946;4.838;2022-10-16T12:25:24;17.50;99.90
39371;DHT22;25099;51.946;4.838;2022-10-16T12:27:59;17.40;99.90
39371;DHT22;25099;51.946;4.838;2022-10-16T12:30:27;17.30;99.90
39371;DHT22;25099;51.946;4.838;2022-10-16T12:32:56;17.30;99.90
39371;DHT22;25099;51.946;4.838;2022-10-16T12:35:26;17.30;99.90
39371;DHT22;25099;51.946;4.838;2022-10-16T12:37:52;17.30;99.90
39371;DHT22;25099;51.946;4.838;2022-10-16T12:40:30;17.30;99.90
39371;DHT22;25099;51.946;4.838;2022-10-16T12:42:57;17.40;99.90
39371;DHT22;25099;51.946;4.838;2022-10-16T12:45:31;17.50;99.90
39371;DHT22;25099;51.946;4.838;2022-10-16T12:47:59;17.60;99.90
39371;DHT22;25099;51.946;4.838;2022-10-16T12:50:37;17.70;99.90
39371;DHT22;25099;51.946;4.838;2022-10-16T12:59:01;18.10;99.90
39371;DHT22;25099;51.946;4.838;2022-10-16T13:07:48;18.40;99.90
39371;DHT22;25099;51.946;4.838;2022-10-16T13:15:52;18.70;99.90
39371;DHT22;25099;51.946;4.838;2022-10-16T13:29:03;18.80;99.90
39371;DHT22;25099;51.946;4.838;2022-10-16T13:31:30;18.70;99.90
39371;DHT22;25099;51.946;4.838;2022-10-16T13:33:57;18.70;99.90
39371;DHT22;25099;51.946;4.838;2022-10-16T13:36:29;18.70;99.90
39371;DHT22;25099;51.946;4.838;2022-10-16T13:39:30;18.70;99.90
39371;DHT22;25099;51.946;4.838;2022-10-16T13:42:24;18.60;99.90
39371;DHT22;25099;51.946;4.838;2022-10-16T13:44:52;18.70;99.90
39371;DHT22;25099;51.946;4.838;2022-10-16T13:47:21;18.70;99.90
39371;DHT22;25099;51.946;4.838;2022-10-16T13:50:31;18.70;99.90
39371;DHT22;25099;51.946;4.838;2022-10-16T13:52:50;18.70;99.90
39371;DHT22;25099;51.946;4.838;2022-10-16T13:55:17;18.60;99.90
39371;DHT22;25099;51.946;4.838;2022-10-16T13:57:44;18.70;99.90
39371;DHT22;25099;51.946;4.838;2022-10-16T14:00:20;18.60;99.90
39371;DHT22;25099;51.946;4.838;2022-10-16T14:03:01;18.60;99.90
39371;DHT22;25099;51.946;4.838;2022-10-16T14:05:27;18.50;99.90
39371;DHT22;25099;51.946;4.838;2022-10-16T14:07:54;18.50;99.90
39371;DHT22;25099;51.946;4.838;2022-10-16T14:10:26;18.50;99.90
39371;DHT22;25099;51.946;4.838;2022-10-16T14:13:04;18.40;99.90
39371;DHT22;25099;51.946;4.838;2022-10-16T14:15:31;18.40;99.90
39371;DHT22;25099;51.946;4.838;2022-10-16T14:17:58;18.40;99.90
39371;DHT22;25099;51.946;4.838;2022-10-16T14:20:31;18.40;99.90
39371;DHT22;25099;51.946;4.838;2022-10-16T14:23:03;18.40;99.90
39371;DHT22;25099;51.946;4.838;2022-10-16T14:25:31;18.40;99.90
39371;DHT22;25099;51.946;4.838;2022-10-16T14:28:19;18.40;99.90
39371;DHT22;25099;51.946;4.838;2022-10-16T14:30:59;18.30;99.90
39371;DHT22;25099;51.946;4.838;2022-10-16T14:33:33;18.30;99.90
39371;DHT22;25099;51.946;4.838;2022-10-16T14:36:15;18.30;99.90
39371;DHT22;25099;51.946;4.838;2022-10-16T14:41:21;18.30;99.90
39371;DHT22;25099;51.946;4.838;2022-10-16T14:43:51;18.30;99.90
39371;DHT22;25099;51.946;4.838;2022-10-16T14:46:22;18.30;99.90
39371;DHT22;25099;51.946;4.838;2022-10-16T14:48:58;18.30;99.90
39371;DHT22;25099;51.946;4.838;2022-10-16T14:51:26;18.30;99.90
39371;DHT22;25099;51.946;4.838;2022-10-16T14:53:51;18.30;99.90
39371;DHT22;25099;51.946;4.838;2022-10-16T14:56:25;18.20;99.90
39371;DHT22;25099;51.946;4.838;2022-10-16T14:58:55;18.20;99.90
39371;DHT22;25099;51.946;4.838;2022-10-16T15:01:21;18.20;99.90
39371;DHT22;25099;51.946;4.838;2022-10-16T15:03:47;18.10;99.90
39371;DHT22;25099;51.946;4.838;2022-10-16T15:06:14;18.20;99.90
39371;DHT22;25099;51.946;4.838;2022-10-16T15:08:40;18.10;99.90
39371;DHT22;25099;51.946;4.838;2022-10-16T15:11:19;18.10;99.90
39371;DHT22;25099;51.946;4.838;2022-10-16T15:13:46;18.00;99.90
39371;DHT22;25099;51.946;4.838;2022-10-16T15:16:14;18.00;99.90
39371;DHT22;25099;51.946;4.838;2022-10-16T15:18:39;17.90;99.90
39371;DHT22;25099;51.946;4.838;2022-10-16T15:21:05;17.80;99.90
39371;DHT22;25099;51.946;4.838;2022-10-16T15:23:31;17.70;99.90
39371;DHT22;25099;51.946;4.838;2022-10-16T15:25:57;17.60;99.90
39371;DHT22;25099;51.946;4.838;2022-10-16T15:28:23;17.50;99.90
39371;DHT22;25099;51.946;4.838;2022-10-16T15:30:53;17.40;99.90
39371;DHT22;25099;51.946;4.838;2022-10-16T15:33:21;17.40;99.90
39371;DHT22;25099;51.946;4.838;2022-10-16T15:35:52;17.30;99.90
39371;DHT22;25099;51.946;4.838;2022-10-16T15:38:21;17.20;99.90
39371;DHT22;25099;51.946;4.838;2022-10-16T15:40:48;17.20;99.90
39371;DHT22;25099;51.946;4.838;2022-10-16T15:43:16;17.10;99.90
39371;DHT22;25099;51.946;4.838;2022-10-16T15:45:43;17.10;99.90
39371;DHT22;25099;51.946;4.838;2022-10-16T15:48:13;17.00;99.90
39371;DHT22;25099;51.946;4.838;2022-10-16T15:50:41;16.90;99.90
39371;DHT22;25099;51.946;4.838;2022-10-16T15:53:08;16.90;99.90
39371;DHT22;25099;51.946;4.838;2022-10-16T15:55:33;16.80;99.90
39371;DHT22;25099;51.946;4.838;2022-10-16T15:57:59;16.80;99.90
39371;DHT22;25099;51.946;4.838;2022-10-16T16:00:25;16.70;99.90
39371;DHT22;25099;51.946;4.838;2022-10-16T16:02:54;16.70;99.90
39371;DHT22;25099;51.946;4.838;2022-10-16T16:05:20;16.60;99.90
39371;DHT22;25099;51.946;4.838;2022-10-16T16:07:47;16.60;99.90
39371;DHT22;25099;51.946;4.838;2022-10-16T16:10:16;16.60;99.90
39371;DHT22;25099;51.946;4.838;2022-10-16T16:12:41;16.40;99.90
39371;DHT22;25099;51.946;4.838;2022-10-16T16:15:08;16.50;99.90
39371;DHT22;25099;51.946;4.838;2022-10-16T16:17:35;16.40;99.90
39371;DHT22;25099;51.946;4.838;2022-10-16T16:20:01;16.40;99.90
39371;DHT22;25099;51.946;4.838;2022-10-16T16:22:27;16.30;99.90
39371;DHT22;25099;51.946;4.838;2022-10-16T16:24:53;16.30;99.90
39371;DHT22;25099;51.946;4.838;2022-10-16T16:27:18;16.30;99.90
39371;DHT22;25099;51.946;4.838;2022-10-16T16:29:45;16.30;99.90
39371;DHT22;25099;51.946;4.838;2022-10-16T16:32:11;16.30;99.90
39371;DHT22;25099;51.946;4.838;2022-10-16T16:34:37;16.10;99.90
39371;DHT22;25099;51.946;4.838;2022-10-16T16:37:02;16.10;99.90
39371;DHT22;25099;51.946;4.838;2022-10-16T16:39:28;16.10;99.90
39371;DHT22;25099;51.946;4.838;2022-10-16T16:41:56;16.00;99.90
39371;DHT22;25099;51.946;4.838;2022-10-16T16:44:22;16.00;99.90
39371;DHT22;25099;51.946;4.838;2022-10-16T16:46:47;16.00;99.90
39371;DHT22;25099;51.946;4.838;2022-10-16T16:49:13;16.00;99.90
39371;DHT22;25099;51.946;4.838;2022-10-16T16:51:40;16.00;99.90
39371;DHT22;25099;51.946;4.838;2022-10-16T16:54:07;15.90;99.90
39371;DHT22;25099;51.946;4.838;2022-10-16T16:56:33;15.90;99.90
39371;DHT22;25099;51.946;4.838;2022-10-16T16:59:00;15.90;99.90
39371;DHT22;25099;51.946;4.838;2022-10-16T17:01:26;15.90;99.90
39371;DHT22;25099;51.946;4.838;2022-10-16T17:03:54;15.80;99.90
39371;DHT22;25099;51.946;4.838;2022-10-16T17:06:22;15.80;99.90
39371;DHT22;25099;51.946;4.838;2022-10-16T17:08:49;15.80;99.90
39371;DHT22;25099;51.946;4.838;2022-10-16T17:11:17;15.70;99.90
39371;DHT22;25099;51.946;4.838;2022-10-16T17:13:44;15.70;99.90
39371;DHT22;25099;51.946;4.838;2022-10-16T17:16:10;15.60;99.90
39371;DHT22;25099;51.946;4.838;2022-10-16T17:18:36;15.60;99.90
39371;DHT22;25099;51.946;4.838;2022-10-16T17:21:04;15.60;99.90
39371;DHT22;25099;51.946;4.838;2022-10-16T17:23:31;15.60;99.90
39371;DHT22;25099;51.946;4.838;2022-10-16T17:25:56;15.50;99.90
39371;DHT22;25099;51.946;4.838;2022-10-16T17:28:27;15.60;99.90
39371;DHT22;25099;51.946;4.838;2022-10-16T17:30:52;15.60;99.90
39371;DHT22;25099;51.946;4.838;2022-10-16T17:33:18;15.50;99.90
39371;DHT22;25099;51.946;4.838;2022-10-16T17:35:45;15.50;99.90
39371;DHT22;25099;51.946;4.838;2022-10-16T17:38:12;15.50;99.90
39371;DHT22;25099;51.946;4.838;2022-10-16T17:40:38;15.50;99.90
39371;DHT22;25099;51.946;4.838;2022-10-16T17:43:05;15.50;99.90
39371;DHT22;25099;51.946;4.838;2022-10-16T17:45:31;15.50;99.90
39371;DHT22;25099;51.946;4.838;2022-10-16T17:47:59;15.40;99.90
39371;DHT22;25099;51.946;4.838;2022-10-16T17:50:26;15.40;99.90
39371;DHT22;25099;51.946;4.838;2022-10-16T17:52:52;15.50;99.90
39371;DHT22;25099;51.946;4.838;2022-10-16T17:55:17;15.40;99.90